Time;durP1;ratioP1;P1;durP2;ratioP2;P2;SDS_P1;SDS_P2;PMS_P1;PMS_P2;Temp;Humidity;BMP_temperature;BMP_pressure;BME280_temperature;BME280_humidity;BME280_pressure;Samples;Min_cycle;Max_cycle;Signal;HPM_P1;HPM_P2
2024/05/05 00:00:12;;;;;;;3.00;2.80;;;13.20;99.90;;;;;;8941580;26;31945;-77
2024/05/05 00:04:15;;;;;;;3.43;3.10;;;13.10;99.90;;;;;;8943605;26;31877;-77
2024/05/05 00:08:19;;;;;;;4.73;3.83;;;13.00;99.90;;;;;;8943028;26;32018;-77
2024/05/05 00:12:22;;;;;;;3.43;3.13;;;13.00;99.90;;;;;;8944071;26;31694;-77
2024/05/05 00:16:29;;;;;;;3.87;3.47;;;12.90;99.90;;;;;;8942966;26;31795;-77
2024/05/05 00:20:32;;;;;;;4.50;4.10;;;12.90;99.90;;;;;;8942045;26;32263;-78
2024/05/05 00:24:36;;;;;;;5.27;4.77;;;12.80;99.90;;;;;;8943259;26;31729;-77
2024/05/05 00:28:39;;;;;;;4.57;4.27;;;12.80;99.90;;;;;;8942630;26;31848;-77
2024/05/05 00:32:46;;;;;;;4.10;3.80;;;12.70;99.90;;;;;;8941033;26;31759;-77
2024/05/05 00:36:49;;;;;;;5.13;4.73;;;12.70;99.90;;;;;;8942783;26;31690;-77
2024/05/05 00:40:53;;;;;;;6.07;4.67;;;12.60;99.90;;;;;;8944802;26;31702;-77
2024/05/05 00:44:57;;;;;;;4.77;4.37;;;12.40;99.90;;;;;;8941307;26;31844;-77
2024/05/05 00:49:04;;;;;;;4.63;4.30;;;12.40;99.90;;;;;;8944969;26;31706;-77
2024/05/05 00:53:09;;;;;;;4.27;3.97;;;12.40;99.90;;;;;;8944571;26;32098;-78
2024/05/05 00:57:13;;;;;;;4.30;3.90;;;12.40;99.90;;;;;;8951237;26;31718;-78
2024/05/05 01:01:17;;;;;;;4.00;3.70;;;12.40;99.90;;;;;;8950625;26;31765;-78
2024/05/05 01:05:23;;;;;;;4.07;3.87;;;12.40;99.90;;;;;;8948557;26;32278;-78
2024/05/05 01:09:26;;;;;;;4.43;4.13;;;12.40;99.90;;;;;;9045112;21;32665;-79
2024/05/05 01:13:30;;;;;;;3.97;3.77;;;12.40;99.90;;;;;;9132821;25;31696;-78
2024/05/05 01:17:33;;;;;;;5.00;3.40;;;12.40;99.90;;;;;;9098713;25;32580;-78
2024/05/05 01:21:40;;;;;;;6.10;3.90;;;12.40;99.90;;;;;;9070672;25;31719;-79
2024/05/05 01:25:46;;;;;;;3.73;3.43;;;12.40;99.90;;;;;;9069026;26;31672;-79
2024/05/05 01:29:49;;;;;;;4.00;3.67;;;12.40;99.90;;;;;;9072005;25;31777;-79
2024/05/05 01:33:53;;;;;;;3.67;3.37;;;12.40;99.90;;;;;;9073995;26;31647;-79
2024/05/05 01:37:57;;;;;;;3.73;3.43;;;12.30;99.90;;;;;;9076158;25;31876;-80
2024/05/05 01:42:03;;;;;;;4.70;4.30;;;12.30;99.90;;;;;;9073135;26;31659;-79
2024/05/05 01:46:06;;;;;;;4.40;4.10;;;12.30;99.90;;;;;;9072269;26;31608;-79
2024/05/05 01:50:10;;;;;;;3.83;3.40;;;12.30;99.90;;;;;;9071103;25;31709;-80
2024/05/05 01:54:14;;;;;;;5.17;4.77;;;12.30;99.90;;;;;;9070066;26;31823;-79
2024/05/05 01:58:20;;;;;;;4.30;4.03;;;12.30;99.90;;;;;;9069313;25;31850;-79
2024/05/05 02:02:23;;;;;;;4.80;4.40;;;12.40;99.90;;;;;;9069912;26;31882;-79
2024/05/05 02:06:29;;;;;;;4.73;4.33;;;12.40;99.90;;;;;;9066827;26;31721;-80
2024/05/05 02:10:32;;;;;;;4.50;4.20;;;12.50;99.90;;;;;;9067965;25;31783;-79
2024/05/05 02:14:40;;;;;;;4.37;4.07;;;12.50;99.90;;;;;;9069162;26;31643;-79
2024/05/05 02:18:43;;;;;;;4.63;4.33;;;12.50;99.90;;;;;;9068443;25;31666;-79
2024/05/05 02:22:47;;;;;;;4.10;3.80;;;12.60;99.90;;;;;;9068247;26;31851;-80
2024/05/05 02:26:51;;;;;;;4.47;4.17;;;12.60;99.90;;;;;;9066184;26;31627;-79
2024/05/05 02:30:57;;;;;;;4.17;3.87;;;12.60;99.90;;;;;;9066020;25;31623;-79
2024/05/05 02:35:01;;;;;;;4.87;4.33;;;12.60;99.90;;;;;;9068164;26;31643;-80
2024/05/05 02:39:04;;;;;;;4.70;4.40;;;12.60;99.90;;;;;;9065354;25;31898;-79
2024/05/05 02:43:09;;;;;;;5.43;5.13;;;12.60;99.90;;;;;;9069868;25;31604;-80
2024/05/05 02:47:15;;;;;;;4.43;4.13;;;12.60;99.90;;;;;;9068164;26;31892;-80
2024/05/05 02:51:18;;;;;;;4.13;3.93;;;12.50;99.90;;;;;;9069129;26;31687;-79
2024/05/05 02:55:22;;;;;;;4.80;4.30;;;12.50;99.90;;;;;;9038263;26;32460;-80
2024/05/05 02:59:26;;;;;;;3.97;3.73;;;12.50;99.90;;;;;;9070013;26;31643;-79
2024/05/05 03:03:32;;;;;;;3.90;3.70;;;12.50;99.90;;;;;;9071167;26;31709;-79
2024/05/05 03:07:35;;;;;;;3.87;3.67;;;12.60;99.90;;;;;;9040180;26;31919;-79
2024/05/05 03:11:41;;;;;;;3.10;3.00;;;12.60;99.90;;;;;;9040693;26;32031;-79
2024/05/05 03:15:44;;;;;;;3.30;3.10;;;12.60;99.90;;;;;;9073497;26;31670;-79
2024/05/05 03:19:51;;;;;;;2.70;2.60;;;12.60;99.90;;;;;;9073485;26;31722;-79
2024/05/05 03:23:54;;;;;;;2.87;2.77;;;12.60;99.90;;;;;;9042240;26;31870;-79
2024/05/05 03:27:58;;;;;;;2.60;2.50;;;12.60;99.90;;;;;;9042162;26;31789;-79
2024/05/05 03:32:02;;;;;;;2.33;2.23;;;12.60;99.90;;;;;;9041864;26;31717;-79
2024/05/05 03:36:08;;;;;;;2.43;2.23;;;12.70;99.90;;;;;;9040365;26;31656;-79
2024/05/05 03:40:12;;;;;;;2.70;2.60;;;12.70;99.90;;;;;;9040666;26;31931;-78
2024/05/05 03:44:16;;;;;;;2.80;2.67;;;12.70;99.90;;;;;;9041634;26;31710;-79
2024/05/05 03:48:19;;;;;;;2.40;2.30;;;12.70;99.90;;;;;;9073721;26;31883;-79
2024/05/05 03:52:26;;;;;;;2.80;2.70;;;12.70;99.90;;;;;;9072441;26;31674;-79
2024/05/05 03:56:30;;;;;;;2.73;2.63;;;12.70;99.90;;;;;;9072845;26;31689;-79
2024/05/05 04:00:34;;;;;;;2.33;2.23;;;12.80;99.90;;;;;;9040922;26;31622;-79
2024/05/05 04:04:37;;;;;;;2.63;2.53;;;12.80;99.90;;;;;;9040434;26;32261;-78
2024/05/05 04:08:43;;;;;;;2.90;2.80;;;12.80;99.90;;;;;;9070477;26;31711;-79
2024/05/05 04:12:47;;;;;;;2.57;2.47;;;12.80;99.90;;;;;;9039658;26;31816;-79
2024/05/05 04:16:50;;;;;;;3.03;2.93;;;12.80;99.90;;;;;;9039029;26;31590;-79
2024/05/05 04:20:54;;;;;;;2.30;2.20;;;12.80;99.90;;;;;;9039243;26;31695;-79
2024/05/05 04:25:00;;;;;;;2.60;2.50;;;12.80;99.90;;;;;;9040594;26;31997;-79
2024/05/05 04:29:04;;;;;;;3.00;2.90;;;12.80;99.90;;;;;;9072798;26;31793;-78
2024/05/05 04:33:07;;;;;;;3.40;3.20;;;12.80;99.90;;;;;;9041946;26;31767;-78
2024/05/05 04:37:11;;;;;;;3.40;3.20;;;12.80;99.90;;;;;;9075593;26;31685;-79
2024/05/05 04:41:17;;;;;;;3.30;3.10;;;12.90;99.90;;;;;;9042503;26;31878;-79
2024/05/05 04:45:21;;;;;;;2.67;2.47;;;13.00;99.90;;;;;;9074957;26;31728;-78
2024/05/05 04:49:24;;;;;;;2.20;2.10;;;13.00;99.90;;;;;;9043297;26;31726;-78
2024/05/05 04:53:28;;;;;;;2.70;2.30;;;12.90;99.90;;;;;;9043703;26;31788;-79
2024/05/05 04:57:34;;;;;;;2.10;2.00;;;12.90;99.90;;;;;;9043642;26;31898;-79
2024/05/05 05:01:38;;;;;;;2.50;2.30;;;12.90;99.90;;;;;;9077211;26;31798;-79
2024/05/05 05:05:41;;;;;;;3.10;2.90;;;12.90;99.90;;;;;;9049339;26;31619;-78
2024/05/05 05:09:45;;;;;;;3.30;3.10;;;12.90;99.90;;;;;;9048018;26;31653;-79
2024/05/05 05:13:53;;;;;;;3.43;3.13;;;12.90;99.90;;;;;;9046767;26;31674;-78
2024/05/05 05:17:56;;;;;;;2.90;2.80;;;13.00;99.90;;;;;;9048375;26;31873;-78
2024/05/05 05:22:00;;;;;;;3.50;3.30;;;13.00;99.90;;;;;;9049123;26;31722;-79
2024/05/05 05:26:03;;;;;;;3.87;3.67;;;13.00;99.90;;;;;;9077937;26;31676;-78
2024/05/05 05:30:10;;;;;;;3.77;3.57;;;13.00;99.90;;;;;;9081074;26;31654;-79
2024/05/05 05:34:13;;;;;;;3.80;3.60;;;13.10;99.90;;;;;;9080216;26;31979;-78
2024/05/05 05:38:17;;;;;;;3.73;3.53;;;13.20;99.90;;;;;;9078591;26;31628;-79
2024/05/05 05:42:21;;;;;;;3.93;3.73;;;13.30;99.90;;;;;;9077784;26;31704;-78
2024/05/05 05:46:27;;;;;;;4.10;3.90;;;13.40;99.90;;;;;;9041914;26;31681;-80
2024/05/05 05:50:30;;;;;;;3.90;3.70;;;13.50;99.90;;;;;;9076569;26;31751;-79
2024/05/05 05:54:34;;;;;;;4.13;3.93;;;13.60;99.90;;;;;;9042099;26;32028;-79
2024/05/05 05:58:38;;;;;;;4.17;3.97;;;13.80;99.90;;;;;;9070850;26;31608;-79
2024/05/05 06:02:44;;;;;;;4.40;4.10;;;14.00;99.90;;;;;;9071041;26;31785;-80
2024/05/05 06:06:47;;;;;;;4.27;4.03;;;14.20;99.90;;;;;;9070774;26;31625;-79
2024/05/05 06:10:51;;;;;;;3.80;3.60;;;14.30;99.90;;;;;;9038630;26;31925;-80
2024/05/05 06:14:54;;;;;;;4.60;4.40;;;14.20;99.90;;;;;;9037010;26;31589;-79
2024/05/05 06:19:01;;;;;;;4.67;4.47;;;14.30;99.90;;;;;;9039836;26;31640;-80
2024/05/05 06:23:04;;;;;;;4.73;4.47;;;14.20;99.90;;;;;;9072178;26;31634;-81
2024/05/05 06:27:08;;;;;;;5.20;4.90;;;13.90;99.90;;;;;;9038734;26;31743;-80
2024/05/05 06:31:12;;;;;;;5.10;4.73;;;13.80;99.90;;;;;;9038366;26;31679;-79
2024/05/05 06:35:18;;;;;;;4.10;3.90;;;13.80;99.90;;;;;;9071074;26;31801;-80
2024/05/05 06:39:23;;;;;;;4.23;3.93;;;13.80;99.90;;;;;;9069971;26;31688;-80
2024/05/05 06:43:26;;;;;;;4.37;4.17;;;14.10;99.90;;;;;;9038877;26;31879;-78
2024/05/05 06:47:30;;;;;;;4.13;3.93;;;14.30;99.90;;;;;;9038935;26;32215;-79
2024/05/05 06:51:36;;;;;;;3.50;3.33;;;14.50;99.90;;;;;;9038910;26;31701;-79
2024/05/05 06:55:40;;;;;;;3.50;3.30;;;14.60;99.90;;;;;;9041841;26;32040;-79
2024/05/05 06:59:44;;;;;;;4.10;3.80;;;14.80;99.90;;;;;;9072259;26;31619;-80
2024/05/05 07:03:47;;;;;;;3.30;3.10;;;15.10;99.90;;;;;;9041072;26;31700;-81
2024/05/05 07:07:54;;;;;;;3.23;3.03;;;15.50;99.90;;;;;;9039577;26;31782;-80
2024/05/05 07:11:57;;;;;;;2.90;2.77;;;15.80;99.90;;;;;;9028586;21;31711;-78
2024/05/05 07:16:01;;;;;;;2.70;2.60;;;15.80;99.90;;;;;;9004055;26;31704;-77
2024/05/05 07:20:05;;;;;;;2.93;2.80;;;15.60;99.90;;;;;;8978027;26;31786;-77
2024/05/05 07:24:11;;;;;;;2.60;2.50;;;15.40;99.90;;;;;;8913756;26;31618;-77
2024/05/05 07:28:14;;;;;;;2.50;2.40;;;15.50;99.90;;;;;;8912797;26;31627;-78
2024/05/05 07:32:18;;;;;;;2.33;2.23;;;15.80;99.90;;;;;;8946903;26;31922;-78
2024/05/05 07:36:22;;;;;;;2.60;2.50;;;16.00;99.90;;;;;;8915731;26;31850;-77
2024/05/05 07:40:28;;;;;;;2.33;2.23;;;16.10;99.90;;;;;;8915058;26;31858;-79
2024/05/05 07:44:31;;;;;;;2.50;2.40;;;15.80;99.90;;;;;;8914867;26;31619;-77
2024/05/05 07:48:35;;;;;;;2.27;2.17;;;15.20;99.90;;;;;;8915564;26;31860;-77
2024/05/05 07:52:45;;;;;;;2.40;2.10;;;15.00;99.90;;;;;;8945904;26;31696;-77
2024/05/05 07:56:53;;;;;;;1.83;1.83;;;14.90;99.90;;;;;;8912628;26;31687;-78
2024/05/05 08:00:57;;;;;;;1.90;1.90;;;14.80;99.90;;;;;;8914140;26;31923;-78
2024/05/05 08:05:01;;;;;;;2.00;1.90;;;15.20;99.90;;;;;;8945485;26;31685;-78
2024/05/05 08:09:04;;;;;;;1.40;1.40;;;15.60;99.90;;;;;;8913547;26;31631;-78
2024/05/05 08:13:11;;;;;;;1.90;1.40;;;15.90;99.90;;;;;;8943868;26;31818;-76
2024/05/05 08:17:14;;;;;;;1.70;1.70;;;16.10;99.90;;;;;;8942727;26;31559;-76
2024/05/05 08:21:18;;;;;;;2.00;1.90;;;16.20;99.90;;;;;;8911406;26;31987;-76
2024/05/05 08:25:21;;;;;;;2.40;2.30;;;15.90;99.90;;;;;;8911442;26;31946;-76
2024/05/05 08:29:28;;;;;;;2.30;2.20;;;15.50;99.90;;;;;;8942203;26;31953;-76
2024/05/05 08:33:31;;;;;;;2.80;2.70;;;15.40;99.90;;;;;;8911377;26;31910;-76
2024/05/05 08:37:38;;;;;;;2.83;2.73;;;15.50;99.90;;;;;;8941995;26;31660;-75
2024/05/05 08:41:45;;;;;;;2.77;2.67;;;16.00;99.90;;;;;;8911354;26;31800;-74
2024/05/05 08:45:52;;;;;;;3.10;2.93;;;16.50;99.90;;;;;;8910615;26;31708;-76
2024/05/05 08:49:57;;;;;;;2.87;2.67;;;16.70;99.90;;;;;;8910467;26;31652;-76
2024/05/05 08:54:00;;;;;;;2.80;2.70;;;16.50;99.90;;;;;;8941944;26;31665;-75
2024/05/05 08:58:04;;;;;;;2.83;2.70;;;16.50;99.90;;;;;;8910472;26;31918;-76
2024/05/05 09:02:12;;;;;;;3.40;3.20;;;16.50;99.90;;;;;;8941305;26;31928;-76
2024/05/05 09:06:16;;;;;;;3.27;3.07;;;16.40;99.90;;;;;;8940878;26;31705;-75
2024/05/05 09:10:26;;;;;;;3.90;3.70;;;16.30;99.90;;;;;;8941250;26;31798;-77
2024/05/05 09:14:30;;;;;;;3.70;3.50;;;16.40;99.90;;;;;;8909896;26;31880;-76
2024/05/05 09:18:36;;;;;;;4.07;3.87;;;16.20;99.90;;;;;;8941205;26;31816;-76
2024/05/05 09:22:40;;;;;;;4.23;3.93;;;16.20;99.90;;;;;;8909561;26;31703;-75
2024/05/05 09:26:43;;;;;;;4.70;4.40;;;16.10;99.90;;;;;;8939908;26;31787;-76
2024/05/05 09:30:47;;;;;;;3.77;3.57;;;15.80;99.90;;;;;;8940811;26;31738;-76
2024/05/05 09:34:55;;;;;;;4.27;3.97;;;15.20;99.90;;;;;;8908930;26;31700;-76
2024/05/05 09:39:00;;;;;;;4.43;4.13;;;15.20;99.90;;;;;;8908683;26;31732;-76
2024/05/05 09:43:03;;;;;;;4.57;4.23;;;15.20;99.90;;;;;;8908819;26;31669;-75
2024/05/05 09:47:10;;;;;;;4.60;4.30;;;15.10;99.90;;;;;;8908617;26;31703;-75
2024/05/05 09:51:20;;;;;;;4.50;4.20;;;14.90;99.90;;;;;;8944605;26;31765;-77
2024/05/05 09:55:34;;;;;;;4.33;4.00;;;14.90;99.90;;;;;;8914342;26;31658;-77
2024/05/05 09:59:40;;;;;;;4.10;3.90;;;15.00;99.90;;;;;;8945836;26;31740;-77
2024/05/05 10:03:44;;;;;;;3.17;2.97;;;15.10;99.90;;;;;;8946143;26;31673;-77
2024/05/05 10:07:52;;;;;;;4.30;4.00;;;15.10;99.90;;;;;;8945244;26;31712;-76
2024/05/05 10:12:03;;;;;;;4.07;3.87;;;15.10;99.90;;;;;;8914337;26;31819;-77
2024/05/05 10:16:09;;;;;;;4.03;3.73;;;15.20;99.90;;;;;;8915912;26;31798;-77
2024/05/05 10:20:20;;;;;;;4.03;3.83;;;15.20;99.90;;;;;;8947377;26;31739;-77
2024/05/05 10:24:26;;;;;;;3.67;3.47;;;15.10;99.90;;;;;;8916011;26;31670;-77
2024/05/05 10:28:30;;;;;;;4.80;4.50;;;15.00;99.90;;;;;;8948526;26;31752;-77
2024/05/05 10:32:34;;;;;;;3.50;3.30;;;15.00;99.90;;;;;;8948271;26;31734;-77
2024/05/05 10:36:39;;;;;;;4.10;3.80;;;15.00;99.90;;;;;;8948917;26;31718;-78
2024/05/05 10:40:46;;;;;;;3.50;3.30;;;15.00;99.90;;;;;;8914511;26;31900;-77
2024/05/05 10:44:49;;;;;;;3.57;3.37;;;15.10;99.90;;;;;;8946397;26;31676;-77
2024/05/05 10:48:56;;;;;;;3.47;3.27;;;15.30;99.90;;;;;;8914569;26;31689;-78
2024/05/05 10:53:00;;;;;;;5.40;4.90;;;15.30;99.90;;;;;;8946361;26;31678;-77
2024/05/05 10:57:07;;;;;;;4.43;3.30;;;15.40;99.90;;;;;;8913655;26;31994;-77
2024/05/05 11:01:11;;;;;;;3.30;3.10;;;15.60;99.90;;;;;;8912418;26;31899;-77
2024/05/05 11:05:14;;;;;;;3.43;3.23;;;15.70;99.90;;;;;;8946090;26;31666;-76
2024/05/05 11:09:18;;;;;;;3.20;3.00;;;15.60;99.90;;;;;;8914732;26;31876;-77
2024/05/05 11:13:24;;;;;;;3.80;3.47;;;15.40;99.90;;;;;;8915705;26;31718;-77
2024/05/05 11:17:28;;;;;;;3.20;3.00;;;15.30;99.90;;;;;;8915077;26;31671;-78
2024/05/05 11:21:32;;;;;;;2.80;2.70;;;15.20;99.90;;;;;;8946024;26;31737;-77
2024/05/05 11:25:36;;;;;;;3.00;2.80;;;15.00;99.90;;;;;;8914563;26;31622;-77
2024/05/05 11:29:42;;;;;;;2.77;2.67;;;14.80;99.90;;;;;;8914755;26;31725;-76
2024/05/05 11:33:45;;;;;;;3.30;3.20;;;14.50;99.90;;;;;;8945877;26;31843;-77
2024/05/05 11:37:49;;;;;;;3.40;3.20;;;14.40;99.90;;;;;;8947522;26;31662;-77
2024/05/05 11:42:23;;;;;;;3.43;3.23;;;14.20;99.90;;;;;;8914976;26;32098;-77
2024/05/05 11:47:08;;;;;;;3.63;3.43;;;14.00;99.90;;;;;;8946268;26;31649;-76
2024/05/05 11:52:23;;;;;;;4.30;4.00;;;14.00;99.90;;;;;;8945985;26;31702;-78
2024/05/05 11:56:29;;;;;;;4.03;3.83;;;14.00;99.90;;;;;;8737246;26;31854;-77
2024/05/05 12:00:33;;;;;;;3.80;3.60;;;13.90;99.90;;;;;;8916038;26;31852;-78
2024/05/05 12:04:37;;;;;;;3.83;3.63;;;13.80;99.90;;;;;;8916437;26;31655;-77
2024/05/05 12:08:43;;;;;;;4.13;3.87;;;13.80;99.90;;;;;;8877022;26;1011470;-76
2024/05/05 12:12:49;;;;;;;3.70;3.50;;;13.70;99.90;;;;;;8913835;26;31689;-78
2024/05/05 12:16:53;;;;;;;4.50;4.20;;;13.60;99.90;;;;;;8945374;26;31592;-77
2024/05/05 12:21:13;;;;;;;4.17;3.87;;;13.60;99.90;;;;;;8942890;26;31659;-78
2024/05/05 12:25:21;;;;;;;4.00;3.70;;;13.60;99.90;;;;;;8942480;26;31667;-78
2024/05/05 12:29:27;;;;;;;4.70;4.37;;;13.70;99.90;;;;;;8942622;26;31728;-78
2024/05/05 12:33:31;;;;;;;4.47;4.17;;;14.00;99.90;;;;;;8911690;26;31646;-78
2024/05/05 12:37:35;;;;;;;4.30;4.00;;;14.40;99.90;;;;;;8942472;26;31636;-78
2024/05/05 12:41:39;;;;;;;5.00;4.60;;;14.80;99.90;;;;;;8911071;26;31858;-78
2024/05/05 12:46:15;;;;;;;4.70;4.40;;;15.10;99.90;;;;;;8942415;26;32013;-78
2024/05/05 12:50:19;;;;;;;5.40;5.00;;;15.20;99.90;;;;;;8910785;26;31735;-76
2024/05/05 12:54:26;;;;;;;6.40;5.80;;;15.20;99.90;;;;;;8941899;26;31833;-77
2024/05/05 12:58:32;;;;;;;5.83;5.43;;;15.20;99.90;;;;;;8910317;26;31797;-78
2024/05/05 13:02:38;;;;;;;6.23;5.73;;;15.30;99.90;;;;;;8910404;26;31558;-76
2024/05/05 13:06:42;;;;;;;6.30;5.90;;;15.30;99.90;;;;;;8941671;26;31681;-77
2024/05/05 13:10:45;;;;;;;6.30;5.90;;;15.30;99.90;;;;;;8941447;26;31689;-78
2024/05/05 13:14:51;;;;;;;5.50;5.20;;;15.40;99.90;;;;;;8941533;26;31695;-76
2024/05/05 13:18:58;;;;;;;5.90;5.50;;;15.50;99.90;;;;;;8941353;26;31623;-76
2024/05/05 13:23:02;;;;;;;6.37;5.90;;;15.60;99.90;;;;;;8941935;26;32316;-76
2024/05/05 13:27:06;;;;;;;6.07;5.53;;;15.60;99.90;;;;;;8945480;26;31662;-77
2024/05/05 13:31:10;;;;;;;5.40;5.10;;;15.60;99.90;;;;;;8947016;26;31664;-78
2024/05/05 13:35:16;;;;;;;6.13;5.80;;;15.70;99.90;;;;;;8945275;26;31662;-78
2024/05/05 13:39:19;;;;;;;6.17;5.60;;;15.70;99.90;;;;;;8946722;26;31669;-76
2024/05/05 13:43:23;;;;;;;5.77;5.27;;;15.70;99.90;;;;;;8946794;26;31599;-77
2024/05/05 13:47:27;;;;;;;5.40;4.90;;;15.60;99.90;;;;;;8946300;26;31640;-77
2024/05/05 13:51:33;;;;;;;5.50;5.10;;;15.60;99.90;;;;;;8946834;26;31580;-76
2024/05/05 13:55:36;;;;;;;5.67;5.27;;;15.50;99.90;;;;;;8914881;26;31685;-76
2024/05/05 13:59:40;;;;;;;6.00;5.60;;;15.40;99.90;;;;;;8946105;26;31864;-76
2024/05/05 14:03:44;;;;;;;4.87;4.57;;;15.30;99.90;;;;;;8915509;26;31639;-77
2024/05/05 14:07:50;;;;;;;5.50;5.20;;;15.30;99.90;;;;;;8946147;26;31845;-77
2024/05/05 14:11:53;;;;;;;5.67;5.27;;;15.40;99.90;;;;;;8914570;26;31989;-76
2024/05/05 14:15:57;;;;;;;6.50;5.40;;;15.40;99.90;;;;;;8945881;26;31710;-77
2024/05/05 14:20:01;;;;;;;5.83;5.43;;;15.50;99.90;;;;;;8945890;26;31689;-77
2024/05/05 14:24:07;;;;;;;5.93;5.43;;;15.50;99.90;;;;;;8946009;26;31642;-78
2024/05/05 14:28:11;;;;;;;6.37;5.83;;;15.40;99.90;;;;;;8945534;26;31662;-77
2024/05/05 14:32:15;;;;;;;6.87;6.40;;;15.10;99.90;;;;;;8914236;26;32112;-76
2024/05/05 14:36:18;;;;;;;5.77;5.37;;;15.10;99.90;;;;;;8913680;26;32000;-78
2024/05/05 14:40:25;;;;;;;6.20;5.70;;;15.30;99.90;;;;;;8945803;26;31677;-76
2024/05/05 14:44:28;;;;;;;6.33;5.93;;;15.60;99.90;;;;;;8914510;26;31680;-78
2024/05/05 14:48:32;;;;;;;6.37;5.87;;;15.80;99.90;;;;;;8945174;26;31698;-77
2024/05/05 14:52:35;;;;;;;6.67;6.20;;;15.90;99.90;;;;;;8945778;26;31844;-78
2024/05/05 14:56:42;;;;;;;6.27;5.87;;;16.00;99.90;;;;;;8945312;26;31708;-78
2024/05/05 15:00:45;;;;;;;6.53;5.97;;;16.20;99.90;;;;;;8913792;26;31688;-77
2024/05/05 15:04:49;;;;;;;5.00;4.70;;;16.40;99.90;;;;;;8913788;26;31747;-78
2024/05/05 15:08:52;;;;;;;6.03;5.63;;;16.50;99.90;;;;;;8913764;26;32021;-77
2024/05/05 15:12:59;;;;;;;5.03;4.73;;;16.70;99.90;;;;;;8915082;26;31634;-78
2024/05/05 15:17:02;;;;;;;5.43;5.13;;;17.10;99.90;;;;;;8945377;26;31691;-79
2024/05/05 15:21:06;;;;;;;4.30;4.07;;;17.30;99.90;;;;;;8913643;26;31712;-79
2024/05/05 15:25:10;;;;;;;4.40;4.20;;;17.10;99.90;;;;;;8944886;26;31706;-79
2024/05/05 15:29:16;;;;;;;4.00;3.80;;;17.00;99.90;;;;;;8944705;26;31675;-79
2024/05/05 15:33:20;;;;;;;4.90;4.60;;;16.90;99.90;;;;;;8913600;26;31696;-77
2024/05/05 15:37:23;;;;;;;4.30;4.10;;;17.00;99.90;;;;;;8944576;26;31651;-77
2024/05/05 15:41:27;;;;;;;4.07;3.73;;;17.30;99.90;;;;;;8944809;26;31739;-77
2024/05/05 15:45:33;;;;;;;3.90;3.70;;;17.60;99.90;;;;;;8944024;26;31744;-76
2024/05/05 15:49:37;;;;;;;4.27;4.07;;;17.80;99.90;;;;;;8944283;26;31809;-77
2024/05/05 15:53:40;;;;;;;3.40;3.20;;;17.80;99.90;;;;;;8913136;26;31949;-76
2024/05/05 15:57:44;;;;;;;3.40;3.20;;;17.80;99.90;;;;;;8913110;26;31733;-77
2024/05/05 16:01:50;;;;;;;3.63;3.43;;;17.80;99.90;;;;;;8944252;26;31960;-78
2024/05/05 16:05:57;;;;;;;4.33;3.80;;;17.50;99.90;;;;;;8943924;26;31762;-77
2024/05/05 16:10:01;;;;;;;3.50;3.30;;;17.20;99.90;;;;;;8944585;26;31694;-77
2024/05/05 16:14:04;;;;;;;4.23;3.80;;;16.80;99.90;;;;;;8912943;26;31619;-78
2024/05/05 16:18:11;;;;;;;4.17;3.87;;;16.40;99.90;;;;;;8945429;26;31652;-80
2024/05/05 16:22:15;;;;;;;4.70;4.03;;;16.20;99.90;;;;;;8945905;26;32561;-78
2024/05/05 16:26:22;;;;;;;3.43;3.23;;;15.90;99.90;;;;;;8915083;26;32034;-78
2024/05/05 16:30:25;;;;;;;3.00;2.90;;;15.70;99.90;;;;;;8949938;26;31640;-79
2024/05/05 16:34:32;;;;;;;3.63;3.47;;;15.60;99.90;;;;;;8946630;26;31664;-79
2024/05/05 16:38:35;;;;;;;3.23;3.03;;;15.60;99.90;;;;;;8913722;26;31646;-78
2024/05/05 16:42:39;;;;;;;3.00;2.90;;;15.80;99.90;;;;;;8946887;26;31716;-79
2024/05/05 16:46:42;;;;;;;3.10;3.00;;;15.80;99.90;;;;;;8948495;26;31699;-80
2024/05/05 16:50:49;;;;;;;3.53;3.33;;;15.90;99.90;;;;;;8916128;26;31793;-80
2024/05/05 16:54:52;;;;;;;3.40;3.10;;;15.90;99.90;;;;;;8915296;26;31760;-80
2024/05/05 16:58:56;;;;;;;3.30;3.10;;;15.80;99.90;;;;;;8949176;26;31667;-79
2024/05/05 17:03:00;;;;;;;3.20;3.00;;;15.70;99.90;;;;;;8951598;26;31841;-78
2024/05/05 17:07:06;;;;;;;3.27;3.07;;;15.60;99.90;;;;;;8915905;26;31985;-76
2024/05/05 17:11:09;;;;;;;3.20;3.10;;;15.40;99.90;;;;;;8915989;26;31832;-77
2024/05/05 17:15:13;;;;;;;3.23;3.13;;;15.30;99.90;;;;;;8916149;26;31595;-76
2024/05/05 17:19:16;;;;;;;4.13;3.83;;;15.20;99.90;;;;;;8951000;26;31600;-77
2024/05/05 17:23:23;;;;;;;4.60;4.30;;;15.00;99.90;;;;;;8954341;26;31854;-78
2024/05/05 17:27:26;;;;;;;5.97;5.53;;;14.70;99.90;;;;;;8950225;26;31744;-77
2024/05/05 17:31:30;;;;;;;5.40;4.33;;;14.40;99.90;;;;;;8951106;26;31668;-76
2024/05/05 17:35:35;;;;;;;5.00;4.70;;;14.20;99.90;;;;;;8955432;26;31780;-77
2024/05/05 17:39:41;;;;;;;5.23;4.93;;;14.10;99.90;;;;;;8961071;26;31577;-80
2024/05/05 17:43:45;;;;;;;5.63;5.07;;;14.00;99.90;;;;;;8926997;26;31856;-80
2024/05/05 17:47:49;;;;;;;4.93;4.53;;;14.00;99.90;;;;;;8954075;26;31547;-80
2024/05/05 17:51:52;;;;;;;5.30;4.90;;;13.90;99.90;;;;;;8964802;26;31667;-81
2024/05/05 17:55:58;;;;;;;5.40;5.00;;;14.00;99.90;;;;;;8928600;26;32006;-80
2024/05/05 18:00:02;;;;;;;4.97;4.67;;;14.10;99.90;;;;;;8927579;26;31704;-79
2024/05/05 18:04:08;;;;;;;5.03;4.73;;;14.00;99.90;;;;;;8954187;26;31661;-78
2024/05/05 18:08:11;;;;;;;4.30;4.10;;;14.00;99.90;;;;;;8920484;26;31656;-79
2024/05/05 18:12:19;;;;;;;3.90;3.60;;;14.00;99.90;;;;;;8937472;26;31745;-79
2024/05/05 18:16:24;;;;;;;4.67;4.37;;;13.90;99.90;;;;;;8984882;26;31665;-79
2024/05/05 18:20:28;;;;;;;3.80;3.60;;;13.80;99.90;;;;;;8983538;26;32372;-78
2024/05/05 18:24:32;;;;;;;4.83;4.10;;;13.80;99.90;;;;;;8987894;26;31757;-80
2024/05/05 18:28:38;;;;;;;4.63;4.30;;;13.70;99.90;;;;;;8982087;26;32273;-78
2024/05/05 18:32:42;;;;;;;5.17;4.77;;;13.70;99.90;;;;;;8986359;26;31691;-80
2024/05/05 18:36:46;;;;;;;4.20;3.80;;;13.50;99.90;;;;;;8987019;26;31771;-80
2024/05/05 18:40:49;;;;;;;5.90;5.33;;;13.50;99.90;;;;;;8995228;26;31937;-79
2024/05/05 18:44:56;;;;;;;5.97;5.67;;;13.30;99.90;;;;;;8985602;26;31789;-80
2024/05/05 18:48:59;;;;;;;5.90;5.50;;;13.10;99.90;;;;;;8982891;26;32277;-80
2024/05/05 18:53:03;;;;;;;5.37;4.83;;;13.00;99.90;;;;;;8980883;26;31849;-80
2024/05/05 18:57:07;;;;;;;5.87;5.57;;;13.00;99.90;;;;;;8987583;26;32036;-82
2024/05/05 19:01:14;;;;;;;6.17;5.57;;;12.90;99.90;;;;;;9021684;26;31602;-80
2024/05/05 19:05:18;;;;;;;5.43;5.13;;;12.90;99.90;;;;;;9026238;26;31773;-80
2024/05/05 19:09:21;;;;;;;6.17;5.73;;;12.90;99.90;;;;;;8999353;26;31103;-81
2024/05/05 19:13:25;;;;;;;5.27;4.93;;;12.80;99.90;;;;;;9031567;26;31637;-80
2024/05/05 19:17:31;;;;;;;5.10;4.70;;;12.80;99.90;;;;;;8997921;26;31883;-80
2024/05/05 19:21:35;;;;;;;4.77;4.47;;;12.80;99.90;;;;;;8987839;26;31761;-81
2024/05/05 19:25:38;;;;;;;7.47;6.87;;;12.70;99.90;;;;;;8993876;26;31786;-80
2024/05/05 19:29:42;;;;;;;6.90;6.40;;;12.70;99.90;;;;;;9021779;26;31689;-81
2024/05/05 19:33:48;;;;;;;6.47;5.90;;;12.70;99.90;;;;;;9020884;26;31822;-81
2024/05/05 19:37:52;;;;;;;6.60;6.00;;;12.70;99.90;;;;;;9024852;26;31703;-81
2024/05/05 19:41:55;;;;;;;6.80;6.30;;;12.60;99.90;;;;;;8987073;26;31977;-79
2024/05/05 19:45:59;;;;;;;6.63;6.17;;;12.60;99.90;;;;;;8982686;26;31650;-81
2024/05/05 19:50:06;;;;;;;6.80;6.30;;;12.60;99.90;;;;;;9014990;26;31703;-80
2024/05/05 19:54:09;;;;;;;5.90;5.50;;;12.60;99.90;;;;;;8981669;26;31876;-81
2024/05/05 19:58:13;;;;;;;5.10;4.80;;;12.60;99.90;;;;;;8980225;26;31999;-80
2024/05/05 20:02:19;;;;;;;5.50;5.07;;;12.60;99.90;;;;;;8979223;26;31695;-81
2024/05/05 20:06:25;;;;;;;6.27;5.87;;;12.60;99.90;;;;;;9010989;26;31701;-81
2024/05/05 20:10:29;;;;;;;5.60;5.20;;;12.50;99.90;;;;;;9010294;26;31862;-80
2024/05/05 20:14:32;;;;;;;6.20;5.40;;;12.50;99.90;;;;;;8978073;26;31714;-81
2024/05/05 20:18:36;;;;;;;7.20;6.53;;;12.40;99.90;;;;;;8977706;26;31631;-81
2024/05/05 20:22:42;;;;;;;9.53;7.40;;;12.40;99.90;;;;;;8979702;26;31614;-80
2024/05/05 20:26:46;;;;;;;8.60;7.00;;;12.30;99.90;;;;;;8976969;26;32143;-81
2024/05/05 20:30:54;;;;;;;30.57;11.80;;;12.30;99.90;;;;;;8975937;26;32271;-80
2024/05/05 20:34:58;;;;;;;33.67;12.63;;;12.30;99.90;;;;;;9006405;26;31660;-81
2024/05/05 20:39:04;;;;;;;52.33;18.17;;;12.30;99.90;;;;;;8974917;26;31880;-80
2024/05/05 20:43:08;;;;;;;105.37;32.50;;;12.20;99.90;;;;;;8918136;26;31648;-82
2024/05/05 20:47:11;;;;;;;62.03;19.77;;;12.10;99.90;;;;;;8917334;26;31926;-80
2024/05/05 20:51:15;;;;;;;109.53;33.73;;;11.90;99.90;;;;;;8916244;26;31687;-81
2024/05/05 20:55:21;;;;;;;45.27;16.43;;;11.90;99.90;;;;;;8916308;26;32178;-80
2024/05/05 20:59:25;;;;;;;8.17;5.37;;;11.80;99.90;;;;;;8947994;26;31734;-80
2024/05/05 21:03:28;;;;;;;3.60;3.30;;;11.70;99.90;;;;;;8917108;26;31660;-80
2024/05/05 21:07:32;;;;;;;4.30;4.00;;;11.70;99.90;;;;;;8947432;26;31861;-80
2024/05/05 21:11:42;;;;;;;3.40;3.20;;;11.70;99.90;;;;;;8915001;26;32019;-79